Time;durP1;ratioP1;P1;durP2;ratioP2;P2;SDS_P1;SDS_P2;PMS_P1;PMS_P2;Temp;Humidity;BMP_temperature;BMP_pressure;BME280_temperature;BME280_humidity;BME280_pressure;Samples;Min_cycle;Max_cycle;Signal;HPM_P1;HPM_P2
2023/05/24 00:00:29;;;;;;;0.10;0.10;;;10.50;99.90;;;;;;5070071;28;20178;-94
2023/05/24 00:02:56;;;;;;;0.10;0.10;;;10.50;99.90;;;;;;5069846;28;20320;-94
2023/05/24 00:05:22;;;;;;;0.10;0.10;;;10.40;99.90;;;;;;5053655;28;20597;-94
2023/05/24 00:07:48;;;;;;;0.13;0.13;;;10.50;99.90;;;;;;5070620;28;20572;-94
2023/05/24 00:10:13;;;;;;;0.10;0.10;;;10.40;99.90;;;;;;5062407;28;20457;-93
2023/05/24 00:12:39;;;;;;;0.10;0.10;;;10.50;99.90;;;;;;5053067;28;20226;-93
2023/05/24 00:15:05;;;;;;;0.10;0.10;;;10.50;99.90;;;;;;5051946;28;20653;-93
2023/05/24 00:17:31;;;;;;;0.10;0.10;;;10.50;99.90;;;;;;5067895;28;20196;-94
2023/05/24 00:19:56;;;;;;;0.10;0.10;;;10.60;99.90;;;;;;5059691;28;20436;-94
2023/05/24 00:22:22;;;;;;;0.10;0.10;;;10.50;99.90;;;;;;5053537;28;20604;-93
2023/05/24 00:24:48;;;;;;;0.10;0.10;;;10.40;99.90;;;;;;5057947;28;20452;-93
2023/05/24 00:27:14;;;;;;;0.10;0.10;;;10.40;99.90;;;;;;5072759;28;20214;-93
2023/05/24 00:29:39;;;;;;;0.10;0.10;;;10.40;99.90;;;;;;5063434;28;20182;-94
2023/05/24 00:32:05;;;;;;;0.10;0.10;;;10.50;99.90;;;;;;5065457;28;20497;-92
2023/05/24 00:34:31;;;;;;;0.10;0.10;;;10.50;99.90;;;;;;5071797;28;20182;-94
2023/05/24 00:36:56;;;;;;;0.10;0.10;;;10.50;99.90;;;;;;5073633;28;20197;-92
2023/05/24 00:39:22;;;;;;;0.10;0.10;;;10.40;99.90;;;;;;5064367;28;20181;-93
2023/05/24 00:41:48;;;;;;;0.10;0.10;;;10.50;99.90;;;;;;5067448;28;20189;-93
2023/05/24 00:44:13;;;;;;;0.03;0.03;;;10.40;99.90;;;;;;5054093;28;20193;-93
2023/05/24 00:46:40;;;;;;;0.10;0.10;;;10.50;99.90;;;;;;5048462;28;20229;-94
2023/05/24 00:49:06;;;;;;;0.10;0.10;;;10.40;99.90;;;;;;5073354;28;20181;-93
2023/05/24 00:51:32;;;;;;;0.10;0.10;;;10.40;99.90;;;;;;5072459;28;20483;-92
2023/05/24 00:53:58;;;;;;;0.10;0.10;;;10.40;99.90;;;;;;5072526;28;20432;-93
2023/05/24 00:56:25;;;;;;;0.10;0.10;;;10.40;99.90;;;;;;5071093;28;20455;-93
2023/05/24 00:58:53;;;;;;;0.10;0.10;;;10.40;99.90;;;;;;5064647;28;20457;-93
2023/05/24 01:01:19;;;;;;;0.00;0.00;;;10.50;99.90;;;;;;5067208;28;20494;-93
2023/05/24 01:03:45;;;;;;;0.10;0.10;;;10.50;99.90;;;;;;5067653;28;20870;-94
2023/05/24 01:06:12;;;;;;;0.10;0.10;;;10.40;99.90;;;;;;5072354;28;20792;-92
2023/05/24 01:08:37;;;;;;;0.10;0.10;;;10.40;99.90;;;;;;5073067;28;20182;-93
2023/05/24 01:11:33;;;;;;;0.10;0.10;;;10.40;99.90;;;;;;5071945;28;20505;-93
2023/05/24 01:14:20;;;;;;;0.10;0.10;;;10.40;99.90;;;;;;5063859;28;20221;-93
2023/05/24 01:16:50;;;;;;;0.10;0.10;;;10.40;99.90;;;;;;5072209;28;20432;-93
2023/05/24 01:19:48;;;;;;;0.10;0.10;;;10.50;99.90;;;;;;5085881;28;20424;-93
2023/05/24 01:22:23;;;;;;;0.10;0.10;;;10.50;99.90;;;;;;5073298;28;20467;-93
2023/05/24 01:24:54;;;;;;;0.10;0.10;;;10.40;99.90;;;;;;5060134;28;20460;-92
2023/05/24 01:27:22;;;;;;;0.10;0.10;;;10.30;99.90;;;;;;5071452;28;20464;-92
2023/05/24 01:29:52;;;;;;;0.10;0.10;;;10.40;99.90;;;;;;5068062;28;20945;-92
2023/05/24 01:32:19;;;;;;;0.10;0.10;;;10.30;99.90;;;;;;5072373;28;20436;-92
2023/05/24 01:34:44;;;;;;;0.10;0.10;;;10.30;99.90;;;;;;5072113;28;20932;-90
2023/05/24 01:37:10;;;;;;;0.10;0.10;;;10.30;99.90;;;;;;5075446;28;20444;-93
2023/05/24 01:39:36;;;;;;;0.10;0.10;;;10.40;99.90;;;;;;5076247;28;20170;-93
2023/05/24 01:42:10;;;;;;;0.10;0.10;;;10.40;99.90;;;;;;5075775;28;20273;-93
2023/05/24 01:44:46;;;;;;;0.10;0.10;;;10.40;99.90;;;;;;5071371;28;20221;-93
2023/05/24 01:47:27;;;;;;;0.10;0.10;;;10.40;99.90;;;;;;5073544;28;20570;-91
2023/05/24 01:50:06;;;;;;;0.10;0.10;;;10.40;99.90;;;;;;5075219;28;20532;-93
2023/05/24 01:52:33;;;;;;;0.07;0.07;;;10.40;99.90;;;;;;5075549;28;20558;-92
2023/05/24 01:55:01;;;;;;;0.10;0.10;;;10.40;99.90;;;;;;5058091;28;20864;-92
2023/05/24 01:57:27;;;;;;;0.00;0.00;;;10.40;99.90;;;;;;5075202;28;20432;-93
2023/05/24 01:59:54;;;;;;;0.10;0.10;;;10.40;99.90;;;;;;5058168;28;20424;-92
2023/05/24 02:02:19;;;;;;;0.10;0.10;;;10.30;99.90;;;;;;5074203;28;20497;-89
2023/05/24 02:04:45;;;;;;;0.10;0.10;;;10.20;99.90;;;;;;5057152;28;20801;-93
2023/05/24 02:07:11;;;;;;;0.10;0.10;;;10.30;99.90;;;;;;5075377;28;20216;-91
2023/05/24 02:09:36;;;;;;;0.03;0.03;;;10.30;99.90;;;;;;5074635;28;20501;-93
2023/05/24 02:12:02;;;;;;;0.10;0.10;;;10.30;99.90;;;;;;5074469;28;20265;-93
2023/05/24 02:14:28;;;;;;;0.10;0.10;;;10.30;99.90;;;;;;5074752;28;20308;-93
2023/05/24 02:16:57;;;;;;;0.10;0.10;;;10.30;99.90;;;;;;5059548;28;20651;-93
2023/05/24 02:19:23;;;;;;;0.10;0.10;;;10.20;99.90;;;;;;5069359;28;20193;-90
2023/05/24 02:21:48;;;;;;;0.10;0.10;;;10.20;99.90;;;;;;5075083;28;20441;-93
2023/05/24 02:24:15;;;;;;;0.07;0.07;;;10.10;99.90;;;;;;5073158;28;20460;-93
2023/05/24 02:26:40;;;;;;;0.10;0.10;;;10.30;99.90;;;;;;5064987;28;20308;-92
2023/05/24 02:29:06;;;;;;;0.10;0.10;;;10.30;99.90;;;;;;5064462;28;20531;-93
2023/05/24 02:31:31;;;;;;;0.10;0.10;;;10.20;99.90;;;;;;5073434;28;20205;-92
2023/05/24 02:33:57;;;;;;;0.10;0.10;;;10.20;99.90;;;;;;5071759;28;20194;-92
2023/05/24 02:36:23;;;;;;;0.10;0.10;;;10.20;99.90;;;;;;5066866;28;20520;-92
2023/05/24 02:38:52;;;;;;;0.10;0.10;;;10.20;99.90;;;;;;5075169;28;20451;-93
2023/05/24 02:41:18;;;;;;;0.10;0.10;;;10.20;99.90;;;;;;5056239;28;20188;-92
2023/05/24 02:43:47;;;;;;;0.10;0.10;;;10.20;99.90;;;;;;5073703;28;20428;-92
2023/05/24 02:46:13;;;;;;;0.10;0.10;;;10.30;99.90;;;;;;5071239;28;20974;-92
2023/05/24 02:48:39;;;;;;;0.10;0.10;;;10.30;99.90;;;;;;5074384;28;20460;-92
2023/05/24 02:51:05;;;;;;;0.10;0.10;;;10.20;99.90;;;;;;5055543;28;20529;-92
2023/05/24 02:53:31;;;;;;;0.10;0.10;;;10.10;99.90;;;;;;5074300;28;20459;-92
2023/05/24 02:55:57;;;;;;;0.10;0.10;;;10.10;99.90;;;;;;5073557;28;20209;-91
2023/05/24 02:58:23;;;;;;;0.10;0.10;;;10.20;99.90;;;;;;5073229;28;20424;-91
2023/05/24 03:00:48;;;;;;;0.10;0.10;;;10.20;99.90;;;;;;5055939;28;20444;-93
2023/05/24 03:03:14;;;;;;;0.10;0.10;;;10.20;99.90;;;;;;5074128;28;20444;-92
2023/05/24 03:05:40;;;;;;;0.07;0.07;;;10.20;99.90;;;;;;5074717;28;20641;-93
2023/05/24 03:08:05;;;;;;;0.03;0.03;;;10.20;99.90;;;;;;5073631;28;20216;-92
2023/05/24 03:10:31;;;;;;;0.10;0.10;;;10.20;99.90;;;;;;5068062;28;20217;-92
2023/05/24 03:12:57;;;;;;;0.10;0.10;;;10.20;99.90;;;;;;5068044;28;20186;-92
2023/05/24 03:15:22;;;;;;;0.10;0.10;;;10.20;99.90;;;;;;5053368;28;20180;-93
2023/05/24 03:17:48;;;;;;;0.10;0.10;;;10.30;99.90;;;;;;5056220;28;20183;-93
2023/05/24 03:20:14;;;;;;;0.10;0.10;;;10.20;99.90;;;;;;5073643;28;20184;-92
2023/05/24 03:22:40;;;;;;;0.10;0.10;;;10.20;99.90;;;;;;5074015;28;20178;-93
2023/05/24 03:25:08;;;;;;;0.10;0.10;;;10.20;99.90;;;;;;5074176;28;20486;-93
2023/05/24 03:27:36;;;;;;;0.10;0.10;;;10.30;99.90;;;;;;5073094;28;20201;-92
2023/05/24 03:30:02;;;;;;;0.10;0.10;;;10.30;99.90;;;;;;5073354;28;20928;-93
2023/05/24 03:32:28;;;;;;;0.10;0.10;;;10.30;99.90;;;;;;5056816;28;20498;-92
2023/05/24 03:34:55;;;;;;;0.10;0.10;;;10.20;99.90;;;;;;5069031;28;20186;-92
2023/05/24 03:37:21;;;;;;;0.10;0.10;;;10.30;99.90;;;;;;5074449;28;20174;-91
2023/05/24 03:39:46;;;;;;;0.10;0.10;;;10.30;99.90;;;;;;5073432;28;20463;-93
2023/05/24 03:42:12;;;;;;;0.10;0.10;;;10.30;99.90;;;;;;5057180;28;20194;-93
2023/05/24 03:44:37;;;;;;;0.10;0.10;;;10.30;99.90;;;;;;5062982;28;20197;-92
2023/05/24 03:47:03;;;;;;;0.10;0.10;;;10.20;99.90;;;;;;5070330;28;20600;-91
2023/05/24 03:49:28;;;;;;;0.10;0.10;;;10.30;99.90;;;;;;5073606;28;20201;-93
2023/05/24 03:51:54;;;;;;;0.07;0.07;;;10.40;99.90;;;;;;5072460;28;20225;-92
2023/05/24 03:54:19;;;;;;;0.10;0.10;;;10.30;99.90;;;;;;5073339;28;20189;-92
2023/05/24 03:56:45;;;;;;;0.07;0.07;;;10.30;99.90;;;;;;5074521;28;20639;-93
2023/05/24 03:59:10;;;;;;;0.10;0.10;;;10.40;99.90;;;;;;5072045;28;20204;-93
2023/05/24 04:01:36;;;;;;;0.10;0.10;;;10.40;99.90;;;;;;5073097;28;20223;-93
2023/05/24 04:04:02;;;;;;;0.10;0.10;;;10.30;99.90;;;;;;5072911;28;20202;-92
2023/05/24 04:06:29;;;;;;;0.10;0.10;;;10.30;99.90;;;;;;5073126;28;20279;-92
2023/05/24 04:08:55;;;;;;;0.00;0.00;;;10.30;99.90;;;;;;5074270;28;20962;-93
2023/05/24 04:11:22;;;;;;;0.10;0.10;;;10.30;99.90;;;;;;5072279;28;20534;-92
2023/05/24 04:13:48;;;;;;;0.10;0.10;;;10.40;99.90;;;;;;5073058;28;20446;-93
2023/05/24 04:16:13;;;;;;;0.10;0.10;;;10.40;99.90;;;;;;5071826;28;20444;-91
2023/05/24 04:18:39;;;;;;;0.10;0.10;;;10.40;99.90;;;;;;5070217;28;20197;-93
2023/05/24 04:21:04;;;;;;;0.10;0.10;;;10.40;99.90;;;;;;5070461;28;20190;-92
2023/05/24 04:23:30;;;;;;;0.10;0.10;;;10.30;99.90;;;;;;5068569;28;20658;-93
2023/05/24 04:25:55;;;;;;;0.10;0.10;;;10.30;99.90;;;;;;5070518;28;20236;-93
2023/05/24 04:28:22;;;;;;;0.07;0.07;;;10.40;99.90;;;;;;5071132;28;20201;-91
2023/05/24 04:30:47;;;;;;;0.10;0.10;;;10.50;99.90;;;;;;5069547;28;20178;-92
2023/05/24 04:33:13;;;;;;;0.10;0.10;;;10.50;99.90;;;;;;5053067;28;20425;-92
2023/05/24 04:35:40;;;;;;;0.10;0.10;;;10.40;99.90;;;;;;5054936;28;20182;-92
2023/05/24 04:38:06;;;;;;;0.10;0.10;;;10.40;99.90;;;;;;5074018;28;20827;-91
2023/05/24 04:40:31;;;;;;;0.10;0.10;;;10.50;99.90;;;;;;5072237;28;20509;-92
2023/05/24 04:42:57;;;;;;;0.10;0.10;;;10.50;99.90;;;;;;5072700;28;20239;-91
2023/05/24 04:45:23;;;;;;;0.10;0.10;;;10.50;99.90;;;;;;5070002;28;20191;-92
2023/05/24 04:47:49;;;;;;;0.20;0.20;;;10.50;99.90;;;;;;5059993;28;20218;-91
2023/05/24 04:50:15;;;;;;;0.20;0.20;;;10.60;99.90;;;;;;5071302;28;20451;-92
2023/05/24 04:52:40;;;;;;;0.20;0.20;;;10.70;99.90;;;;;;5070299;28;20234;-91
2023/05/24 04:55:06;;;;;;;0.20;0.20;;;10.70;99.90;;;;;;5053044;28;20189;-91
2023/05/24 04:57:32;;;;;;;0.20;0.20;;;10.60;99.90;;;;;;5071188;28;20185;-91
2023/05/24 04:59:57;;;;;;;0.20;0.20;;;10.70;99.90;;;;;;5068622;28;20447;-92
2023/05/24 05:02:25;;;;;;;0.20;0.20;;;10.70;99.90;;;;;;5061689;28;20303;-90
2023/05/24 05:04:50;;;;;;;0.20;0.20;;;10.80;99.90;;;;;;5069386;28;20808;-91
2023/05/24 05:07:16;;;;;;;0.20;0.20;;;10.70;99.90;;;;;;5064549;28;20562;-92
2023/05/24 05:09:42;;;;;;;0.20;0.20;;;10.80;99.90;;;;;;5079949;28;20189;-92
2023/05/24 05:12:07;;;;;;;0.10;0.10;;;10.80;99.90;;;;;;5056677;28;20183;-92
2023/05/24 05:14:33;;;;;;;0.20;0.20;;;10.80;99.90;;;;;;5069541;28;20185;-93
2023/05/24 05:16:58;;;;;;;0.17;0.17;;;10.80;99.90;;;;;;5074876;28;21035;-93
2023/05/24 05:19:24;;;;;;;0.20;0.20;;;10.80;99.90;;;;;;5056757;28;20189;-93
2023/05/24 05:21:50;;;;;;;0.20;0.20;;;10.90;99.90;;;;;;5042216;28;20191;-92
2023/05/24 05:24:17;;;;;;;0.20;0.20;;;11.00;99.90;;;;;;5051097;28;20262;-92
2023/05/24 05:26:42;;;;;;;0.10;0.10;;;11.00;99.90;;;;;;5093103;28;20463;-92
2023/05/24 05:29:08;;;;;;;0.20;0.20;;;11.00;99.90;;;;;;5077157;28;20839;-92
2023/05/24 05:31:34;;;;;;;0.10;0.10;;;11.20;99.90;;;;;;5069609;28;20964;-89
2023/05/24 05:33:59;;;;;;;0.20;0.20;;;11.10;99.90;;;;;;5072433;28;20182;-90
2023/05/24 05:36:25;;;;;;;0.20;0.20;;;11.10;99.90;;;;;;5074316;28;20189;-89
2023/05/24 05:38:50;;;;;;;0.10;0.10;;;11.20;99.90;;;;;;5074325;28;20174;-88
2023/05/24 05:41:16;;;;;;;0.20;0.20;;;11.00;99.90;;;;;;5068972;28;20277;-89
2023/05/24 05:43:42;;;;;;;0.10;0.10;;;11.00;99.90;;;;;;5071411;28;20182;-89
2023/05/24 05:46:07;;;;;;;0.10;0.10;;;11.10;99.90;;;;;;5061656;28;20583;-89
2023/05/24 05:48:33;;;;;;;0.10;0.10;;;11.10;99.90;;;;;;5070301;28;20188;-89
2023/05/24 05:50:58;;;;;;;0.10;0.10;;;11.10;99.90;;;;;;5068066;28;20236;-88
2023/05/24 05:53:24;;;;;;;0.10;0.10;;;11.10;99.90;;;;;;5073485;28;20654;-89
2023/05/24 05:55:49;;;;;;;0.10;0.10;;;11.20;99.90;;;;;;5063429;28;20722;-87
2023/05/24 05:58:15;;;;;;;0.10;0.10;;;11.20;99.90;;;;;;5070514;28;20174;-89
2023/05/24 06:00:40;;;;;;;0.10;0.10;;;11.20;99.90;;;;;;5071302;28;20194;-89
2023/05/24 06:03:06;;;;;;;0.10;0.10;;;11.20;99.90;;;;;;5064169;28;20186;-89
2023/05/24 06:05:31;;;;;;;0.10;0.10;;;11.30;99.90;;;;;;5068855;28;20583;-90
2023/05/24 06:07:57;;;;;;;0.10;0.10;;;11.20;99.90;;;;;;5073947;28;20226;-90
2023/05/24 06:10:23;;;;;;;0.10;0.10;;;11.40;99.90;;;;;;5068407;28;20186;-90
2023/05/24 06:12:48;;;;;;;0.10;0.10;;;11.50;99.90;;;;;;5068661;28;20200;-90
2023/05/24 06:15:14;;;;;;;0.10;0.10;;;11.50;99.90;;;;;;5068151;28;20220;-89
2023/05/24 06:17:41;;;;;;;0.10;0.10;;;11.60;99.90;;;;;;5070758;28;20754;-89
2023/05/24 06:20:09;;;;;;;0.10;0.10;;;11.50;99.90;;;;;;5067808;28;20795;-89
2023/05/24 06:22:37;;;;;;;0.10;0.10;;;11.50;99.90;;;;;;5074365;28;20932;-89
2023/05/24 06:25:04;;;;;;;0.03;0.03;;;11.70;99.90;;;;;;5051397;28;20437;-90
2023/05/24 06:27:29;;;;;;;0.10;0.10;;;11.80;99.90;;;;;;5068613;28;21007;-89
2023/05/24 06:29:55;;;;;;;0.10;0.10;;;11.90;99.90;;;;;;5067120;28;20444;-89
2023/05/24 06:32:20;;;;;;;0.20;0.20;;;12.10;99.90;;;;;;5067106;28;20229;-87
2023/05/24 06:34:46;;;;;;;0.10;0.10;;;12.10;99.90;;;;;;5067674;28;20570;-90
2023/05/24 06:37:14;;;;;;;0.10;0.10;;;12.10;99.90;;;;;;5066373;28;20190;-88
2023/05/24 06:39:40;;;;;;;0.10;0.10;;;12.10;99.90;;;;;;5069885;28;20288;-87
2023/05/24 06:42:05;;;;;;;0.00;0.00;;;12.30;99.90;;;;;;5049923;28;20448;-87
2023/05/24 06:44:33;;;;;;;0.00;0.00;;;12.20;99.90;;;;;;5049885;28;20523;-87
2023/05/24 06:46:59;;;;;;;0.10;0.10;;;12.10;99.90;;;;;;5063947;28;20308;-87
2023/05/24 06:49:25;;;;;;;0.10;0.10;;;12.10;99.90;;;;;;5045748;28;20451;-86
2023/05/24 06:51:51;;;;;;;0.10;0.10;;;11.60;99.90;;;;;;5067527;28;20488;-87
2023/05/24 06:54:17;;;;;;;0.10;0.10;;;11.70;99.90;;;;;;5062084;28;20182;-87
2023/05/24 06:56:43;;;;;;;0.07;0.07;;;11.90;99.90;;;;;;5073809;28;20824;-86
2023/05/24 06:59:08;;;;;;;0.10;0.10;;;12.00;99.90;;;;;;5070970;28;20189;-87
2023/05/24 07:01:38;;;;;;;0.07;0.07;;;12.00;99.90;;;;;;5069136;28;20197;-85
2023/05/24 07:04:04;;;;;;;0.10;0.10;;;12.10;99.90;;;;;;5076231;28;20189;-88
2023/05/24 07:06:32;;;;;;;0.10;0.10;;;12.30;99.90;;;;;;5070066;28;20468;-87
2023/05/24 07:08:57;;;;;;;0.03;0.03;;;12.20;99.90;;;;;;5069726;28;20444;-88
2023/05/24 07:11:23;;;;;;;0.03;0.03;;;12.30;99.90;;;;;;5068025;28;21025;-87
2023/05/24 07:13:48;;;;;;;0.10;0.10;;;12.30;99.90;;;;;;5068897;28;20638;-86
2023/05/24 07:16:14;;;;;;;0.10;0.10;;;12.30;99.90;;;;;;5064201;28;20190;-88
2023/05/24 07:18:40;;;;;;;0.10;0.10;;;12.30;99.90;;;;;;5069695;28;20182;-88
2023/05/24 07:21:06;;;;;;;0.10;0.10;;;12.30;99.90;;;;;;5069936;28;20209;-88
2023/05/24 07:23:31;;;;;;;0.07;0.07;;;12.30;99.90;;;;;;5065815;28;20189;-89
2023/05/24 07:25:57;;;;;;;0.03;0.03;;;12.30;99.90;;;;;;5066325;28;20257;-86
2023/05/24 07:28:22;;;;;;;0.10;0.10;;;12.30;99.90;;;;;;5070915;28;20190;-85
2023/05/24 07:30:49;;;;;;;0.07;0.07;;;12.20;99.90;;;;;;5071424;28;20217;-86
2023/05/24 07:33:15;;;;;;;0.10;0.10;;;12.30;99.90;;;;;;5052959;28;20823;-86
2023/05/24 07:35:41;;;;;;;0.10;0.10;;;12.20;99.90;;;;;;5070645;28;20493;-85
2023/05/24 07:38:06;;;;;;;0.10;0.10;;;12.30;99.90;;;;;;5071184;28;20223;-85
2023/05/24 07:40:32;;;;;;;0.10;0.10;;;12.20;99.90;;;;;;5067106;28;20613;-85
2023/05/24 07:42:58;;;;;;;0.03;0.03;;;12.40;99.90;;;;;;5067469;28;20875;-84
2023/05/24 07:45:23;;;;;;;0.10;0.10;;;12.40;99.90;;;;;;5065184;28;20194;-85
2023/05/24 07:47:49;;;;;;;0.10;0.10;;;12.50;99.90;;;;;;5055033;28;20835;-86
2023/05/24 07:50:15;;;;;;;0.07;0.07;;;12.50;99.90;;;;;;5067612;28;20189;-80
2023/05/24 07:52:41;;;;;;;0.10;0.10;;;12.60;99.90;;;;;;5070969;28;20743;-81
2023/05/24 07:55:07;;;;;;;0.00;0.00;;;12.90;99.90;;;;;;5070548;28;20412;-82
2023/05/24 07:57:33;;;;;;;0.10;0.10;;;12.80;99.90;;;;;;5063348;28;20453;-86
2023/05/24 07:59:58;;;;;;;0.10;0.10;;;12.90;99.90;;;;;;5067225;28;20273;-90
2023/05/24 08:02:25;;;;;;;0.10;0.10;;;13.10;99.90;;;;;;5071366;28;20190;-87
2023/05/24 08:04:51;;;;;;;0.10;0.10;;;13.40;99.90;;;;;;5070764;28;20170;-88
2023/05/24 08:07:16;;;;;;;0.10;0.10;;;13.50;99.90;;;;;;5059044;28;20542;-88
2023/05/24 08:09:42;;;;;;;0.10;0.10;;;13.70;99.90;;;;;;5062694;28;20534;-88
2023/05/24 08:12:08;;;;;;;0.10;0.10;;;13.90;99.90;;;;;;5048749;28;20903;-88
2023/05/24 08:14:33;;;;;;;0.10;0.10;;;14.30;99.90;;;;;;5065855;28;20273;-86
2023/05/24 08:17:00;;;;;;;0.10;0.10;;;14.40;99.90;;;;;;5070337;28;20189;-91
2023/05/24 08:19:26;;;;;;;0.10;0.10;;;14.70;99.90;;;;;;5074287;28;20174;-88
2023/05/24 08:21:55;;;;;;;0.10;0.10;;;14.90;99.90;;;;;;5074344;28;20501;-90
2023/05/24 08:24:21;;;;;;;0.10;0.10;;;15.00;99.90;;;;;;5068414;28;20432;-88
2023/05/24 08:26:47;;;;;;;0.10;0.10;;;14.60;99.90;;;;;;5067030;28;20468;-88
2023/05/24 08:29:12;;;;;;;0.10;0.10;;;14.70;99.90;;;;;;5063759;28;21000;-93
2023/05/24 08:31:38;;;;;;;0.00;0.00;;;14.70;99.90;;;;;;5060586;28;20182;-88
2023/05/24 08:34:03;;;;;;;0.00;0.00;;;14.50;99.90;;;;;;5066158;28;20178;-89
2023/05/24 08:36:29;;;;;;;0.00;0.00;;;14.50;99.90;;;;;;5070852;28;20184;-91
2023/05/24 08:38:55;;;;;;;0.00;0.00;;;14.50;99.90;;;;;;5075497;28;20177;-91
2023/05/24 08:41:21;;;;;;;0.00;0.00;;;14.30;99.90;;;;;;5090621;28;20173;-89
2023/05/24 08:43:47;;;;;;;0.00;0.00;;;14.10;99.90;;;;;;5091028;28;20177;-90
2023/05/24 08:46:15;;;;;;;0.00;0.00;;;14.00;99.90;;;;;;5077576;28;20434;-90
2023/05/24 08:48:45;;;;;;;0.00;0.00;;;14.40;99.90;;;;;;5076850;28;20231;-92
2023/05/24 08:51:15;;;;;;;0.00;0.00;;;14.80;99.90;;;;;;5059015;28;20463;-92
2023/05/24 08:53:47;;;;;;;0.00;0.00;;;15.30;99.90;;;;;;5076413;28;20428;-92
2023/05/24 08:56:16;;;;;;;0.00;0.00;;;14.80;99.90;;;;;;5075319;28;21049;-92
2023/05/24 08:58:41;;;;;;;0.00;0.00;;;14.70;99.90;;;;;;5076502;28;20439;-91
2023/05/24 09:01:09;;;;;;;0.00;0.00;;;14.70;99.90;;;;;;5066038;28;21069;-91
2023/05/24 09:03:35;;;;;;;0.00;0.00;;;14.70;99.90;;;;;;5074932;28;20186;-91
2023/05/24 09:06:02;;;;;;;0.00;0.00;;;15.40;99.90;;;;;;5067168;28;20444;-92
2023/05/24 09:08:29;;;;;;;0.00;0.00;;;15.30;99.90;;;;;;5072753;28;20469;-92
2023/05/24 09:10:55;;;;;;;0.00;0.00;;;15.40;99.90;;;;;;5075113;28;20550;-93
2023/05/24 09:13:23;;;;;;;0.00;0.00;;;16.10;99.90;;;;;;5062158;28;20467;-90
2023/05/24 09:15:50;;;;;;;0.00;0.00;;;15.40;99.90;;;;;;5072543;28;20574;-91
2023/05/24 09:18:15;;;;;;;0.00;0.00;;;15.50;99.90;;;;;;5079401;28;20470;-89
2023/05/24 09:20:41;;;;;;;0.00;0.00;;;15.00;99.90;;;;;;5071571;28;20475;-90
2023/05/24 09:23:07;;;;;;;0.00;0.00;;;15.00;99.90;;;;;;5072397;28;20193;-89
2023/05/24 09:25:33;;;;;;;0.00;0.00;;;14.40;99.90;;;;;;5055294;28;20186;-91
2023/05/24 09:28:06;;;;;;;0.00;0.00;;;14.10;99.90;;;;;;5075297;28;20472;-91
2023/05/24 09:30:32;;;;;;;0.00;0.00;;;14.10;99.90;;;;;;5069970;28;20185;-91
2023/05/24 09:32:59;;;;;;;0.00;0.00;;;14.80;99.90;;;;;;5074771;28;20420;-88
2023/05/24 09:35:25;;;;;;;0.00;0.00;;;15.40;99.90;;;;;;5053876;28;20436;-93
2023/05/24 09:37:56;;;;;;;0.00;0.00;;;16.40;99.90;;;;;;5076328;28;20523;-91
2023/05/24 09:40:22;;;;;;;0.10;0.10;;;16.20;99.90;;;;;;5094012;28;20510;-89
2023/05/24 09:42:50;;;;;;;0.10;0.10;;;15.50;99.90;;;;;;5079493;28;20533;-92
2023/05/24 09:45:16;;;;;;;0.10;0.10;;;15.50;99.90;;;;;;5069289;28;20439;-91
2023/05/24 09:47:46;;;;;;;0.10;0.10;;;16.10;99.90;;;;;;5063458;28;21011;-93
2023/05/24 09:50:18;;;;;;;0.10;0.10;;;16.20;99.90;;;;;;5078053;28;20260;-94
2023/05/24 09:52:44;;;;;;;0.10;0.10;;;16.20;99.90;;;;;;5070124;28;20484;-95
2023/05/24 09:55:20;;;;;;;0.10;0.10;;;15.60;99.90;;;;;;5067775;28;20963;-92
2023/05/24 09:58:12;;;;;;;0.10;0.10;;;15.60;99.90;;;;;;5072447;28;20444;-90
2023/05/24 10:00:40;;;;;;;0.10;0.10;;;16.40;99.90;;;;;;5073998;28;20439;-93
2023/05/24 10:03:10;;;;;;;0.10;0.10;;;16.90;99.90;;;;;;5066125;28;20435;-92
2023/05/24 10:05:37;;;;;;;0.10;0.10;;;16.60;99.90;;;;;;5062889;28;20432;-92
2023/05/24 10:08:08;;;;;;;0.10;0.10;;;16.60;99.90;;;;;;5073755;28;20475;-93
2023/05/24 10:10:33;;;;;;;0.10;0.10;;;16.50;99.90;;;;;;5072034;28;20428;-94
2023/05/24 10:13:00;;;;;;;0.10;0.10;;;17.00;99.90;;;;;;5075593;28;20526;-94
2023/05/24 10:15:26;;;;;;;0.10;0.10;;;17.20;99.90;;;;;;5068652;28;20243;-89
2023/05/24 10:17:56;;;;;;;0.00;0.00;;;17.70;99.90;;;;;;5068513;28;20454;-90
2023/05/24 10:20:25;;;;;;;0.00;0.00;;;18.30;99.90;;;;;;5080847;28;20436;-89
2023/05/24 10:22:56;;;;;;;0.00;0.00;;;18.60;99.90;;;;;;5063615;28;20501;-89
2023/05/24 10:25:26;;;;;;;0.00;0.00;;;19.00;99.90;;;;;;5079621;28;20776;-88
2023/05/24 10:27:57;;;;;;;0.00;0.00;;;18.30;99.90;;;;;;5070409;28;20488;-90
2023/05/24 10:30:40;;;;;;;0.00;0.00;;;18.80;99.90;;;;;;5070147;28;20519;-90
2023/05/24 10:33:08;;;;;;;0.00;0.00;;;20.20;99.90;;;;;;5080001;28;20440;-89
2023/05/24 10:35:36;;;;;;;0.00;0.00;;;19.00;99.90;;;;;;5068165;28;20440;-90
2023/05/24 10:38:06;;;;;;;0.10;0.00;;;18.70;99.90;;;;;;5053154;28;20531;-90
2023/05/24 10:40:32;;;;;;;0.00;0.00;;;18.90;99.90;;;;;;5063020;28;20428;-90
2023/05/24 10:42:58;;;;;;;0.00;0.00;;;19.00;99.90;;;;;;5088654;28;20496;-90
2023/05/24 10:45:26;;;;;;;0.00;0.00;;;18.60;99.90;;;;;;5063271;28;20466;-90
2023/05/24 10:47:53;;;;;;;0.00;0.00;;;18.50;99.90;;;;;;5069799;28;20218;-91
2023/05/24 10:50:20;;;;;;;0.00;0.00;;;18.20;99.90;;;;;;5080003;28;20423;-94
2023/05/24 10:52:48;;;;;;;0.00;0.00;;;18.70;99.90;;;;;;5081719;28;20899;-93
2023/05/24 10:55:14;;;;;;;0.00;0.00;;;19.90;99.90;;;;;;5063043;28;20444;-93
2023/05/24 10:57:40;;;;;;;0.00;0.00;;;20.40;99.90;;;;;;5074961;28;20455;-92
2023/05/24 11:00:24;;;;;;;0.00;0.00;;;21.00;99.90;;;;;;5082730;28;20441;-94
2023/05/24 11:02:50;;;;;;;0.00;0.00;;;20.70;99.90;;;;;;5078889;28;20446;-90
2023/05/24 11:05:17;;;;;;;0.00;0.00;;;21.60;99.90;;;;;;5088988;28;20488;-91
2023/05/24 11:07:43;;;;;;;0.00;0.00;;;21.60;99.90;;;;;;5072012;28;20502;-91
2023/05/24 11:10:28;;;;;;;0.00;0.00;;;21.00;99.90;;;;;;5054912;28;20443;-91
2023/05/24 11:12:59;;;;;;;0.00;0.00;;;19.80;99.90;;;;;;5058452;28;20441;-93
2023/05/24 11:15:25;;;;;;;0.00;0.00;;;18.80;99.90;;;;;;5070200;28;20493;-94
2023/05/24 11:18:11;;;;;;;0.00;0.00;;;18.20;99.90;;;;;;5055999;28;20851;-95
2023/05/24 11:20:38;;;;;;;0.00;0.00;;;17.90;99.90;;;;;;5073212;28;20174;-94
2023/05/24 11:23:05;;;;;;;0.00;0.00;;;17.60;99.90;;;;;;5071988;28;20487;-95
2023/05/24 11:25:32;;;;;;;0.00;0.00;;;17.80;99.90;;;;;;5078721;28;20444;-95
2023/05/24 11:27:59;;;;;;;0.00;0.00;;;19.20;99.90;;;;;;5051820;28;20902;-94
2023/05/24 11:30:25;;;;;;;0.00;0.00;;;20.70;99.90;;;;;;5064299;28;20493;-93
2023/05/24 11:32:51;;;;;;;0.00;0.00;;;21.30;99.90;;;;;;5054811;28;20972;-92
2023/05/24 11:35:18;;;;;;;0.00;0.00;;;20.70;99.90;;;;;;5073349;28;20240;-93
2023/05/24 11:37:44;;;;;;;0.00;0.00;;;20.10;99.90;;;;;;5076292;28;20559;-95
2023/05/24 11:40:10;;;;;;;0.00;0.00;;;19.50;99.90;;;;;;5069695;28;20432;-94
2023/05/24 11:42:37;;;;;;;0.10;0.00;;;18.90;99.90;;;;;;5070970;28;20189;-95
2023/05/24 11:45:07;;;;;;;0.00;0.00;;;18.60;99.90;;;;;;5063368;28;20763;-95
2023/05/24 11:47:39;;;;;;;0.00;0.00;;;19.10;99.90;;;;;;5063359;28;20475;-95
2023/05/24 11:50:05;;;;;;;0.00;0.00;;;20.30;99.90;;;;;;5070763;28;20440;-93
2023/05/24 11:52:31;;;;;;;0.00;0.00;;;21.50;99.90;;;;;;5071900;28;20479;-91
2023/05/24 11:54:57;;;;;;;0.00;0.00;;;22.10;99.90;;;;;;5067354;28;20439;-92
2023/05/24 11:57:35;;;;;;;0.00;0.00;;;21.50;99.90;;;;;;5087323;28;20194;-91
2023/05/24 12:00:01;;;;;;;0.00;0.00;;;20.40;99.90;;;;;;5069262;28;20181;-91
2023/05/24 12:02:28;;;;;;;0.00;0.00;;;19.80;99.90;;;;;;5058982;28;20443;-92
2023/05/24 12:04:54;;;;;;;0.00;0.00;;;19.20;99.90;;;;;;5077219;28;20184;-91
2023/05/24 12:07:22;;;;;;;0.00;0.00;;;18.70;99.90;;;;;;5077832;28;20471;-93
2023/05/24 12:09:49;;;;;;;0.00;0.00;;;19.50;99.90;;;;;;5072233;28;20184;-93
2023/05/24 12:12:14;;;;;;;0.10;0.00;;;20.50;99.90;;;;;;5074596;28;20440;-91
2023/05/24 12:14:40;;;;;;;0.00;0.00;;;21.20;99.90;;;;;;5068343;28;21144;-87
2023/05/24 12:17:15;;;;;;;0.00;0.00;;;22.00;99.90;;;;;;5065408;28;20184;-88
2023/05/24 12:19:42;;;;;;;0.00;0.00;;;22.80;99.90;;;;;;5069015;28;20809;-88
2023/05/24 12:22:08;;;;;;;0.00;0.00;;;23.50;99.90;;;;;;5077630;28;20453;-89
2023/05/24 12:24:34;;;;;;;0.00;0.00;;;21.90;99.90;;;;;;5076195;28;20432;-90
2023/05/24 12:27:01;;;;;;;0.00;0.00;;;21.00;99.90;;;;;;5070880;28;20236;-87
2023/05/24 12:29:35;;;;;;;0.00;0.00;;;20.00;99.90;;;;;;5070303;28;20431;-90
2023/05/24 12:32:01;;;;;;;0.00;0.00;;;19.40;99.90;;;;;;5075587;28;20990;-93
2023/05/24 12:34:27;;;;;;;0.00;0.00;;;18.90;99.90;;;;;;5049576;28;20444;-91
2023/05/24 12:36:54;;;;;;;0.00;0.00;;;19.10;99.90;;;;;;5070953;28;20506;-93
2023/05/24 12:39:34;;;;;;;0.00;0.00;;;19.40;99.90;;;;;;5081514;28;20535;-92
2023/05/24 12:42:02;;;;;;;0.00;0.00;;;20.30;99.90;;;;;;5053044;28;20487;-90
2023/05/24 12:44:35;;;;;;;0.00;0.00;;;20.60;99.90;;;;;;5082710;28;20442;-90
2023/05/24 12:47:03;;;;;;;0.00;0.00;;;21.40;99.90;;;;;;5065994;28;20476;-90